Time;durP1;ratioP1;P1;durP2;ratioP2;P2;SDS_P1;SDS_P2;PMS_P1;PMS_P2;Temp;Humidity;BMP_temperature;BMP_pressure;BME280_temperature;BME280_humidity;BME280_pressure;Samples;Min_cycle;Max_cycle;Signal;HPM_P1;HPM_P2
2022/08/31 00:08:25;;;;;;;1.90;0.70;;;16.20;99.90;;;;;;12487279;28;20071;-34
2022/08/31 00:14:27;;;;;;;1.63;0.70;;;16.10;99.90;;;;;;12496008;28;20132;-34
2022/08/31 00:20:29;;;;;;;1.77;0.50;;;16.10;99.90;;;;;;12490129;28;20159;-34
2022/08/31 00:26:35;;;;;;;1.25;0.70;;;16.10;99.90;;;;;;12485079;28;20108;-34
2022/08/31 00:32:38;;;;;;;1.25;0.57;;;16.20;99.90;;;;;;12485509;28;20053;-34
2022/08/31 00:38:40;;;;;;;2.47;0.60;;;16.20;99.90;;;;;;12488922;28;20103;-34
2022/08/31 00:44:42;;;;;;;2.38;0.60;;;16.00;99.90;;;;;;12480897;28;20049;-34
2022/08/31 00:50:44;;;;;;;1.60;0.70;;;15.90;99.90;;;;;;12489555;28;20140;-34
2022/08/31 00:56:46;;;;;;;2.55;0.70;;;15.90;99.90;;;;;;12484098;28;20053;-35
2022/08/31 01:02:48;;;;;;;2.38;0.73;;;16.00;99.90;;;;;;12489165;28;20049;-34
2022/08/31 01:08:52;;;;;;;2.83;0.55;;;16.00;99.90;;;;;;12487588;28;20493;-34
2022/08/31 01:14:56;;;;;;;1.02;0.60;;;15.90;99.90;;;;;;12485761;28;20057;-34
2022/08/31 01:21:27;;;;;;;4.37;0.60;;;15.80;99.90;;;;;;12482697;28;20565;-34
2022/08/31 01:27:33;;;;;;;1.83;0.75;;;15.80;99.90;;;;;;12485597;28;20053;-34
2022/08/31 01:33:37;;;;;;;2.85;0.68;;;15.70;99.90;;;;;;12485475;28;20128;-34
2022/08/31 01:39:39;;;;;;;0.80;0.50;;;15.50;99.90;;;;;;12482230;28;20136;-34
2022/08/31 01:45:41;;;;;;;1.83;0.60;;;15.50;99.90;;;;;;12485525;28;20126;-34
2022/08/31 01:51:43;;;;;;;2.25;0.70;;;15.40;99.90;;;;;;12493625;28;20182;-34
2022/08/31 01:57:45;;;;;;;1.38;1.02;;;15.30;99.90;;;;;;12479996;28;20053;-34
2022/08/31 02:03:47;;;;;;;2.63;0.80;;;15.20;99.90;;;;;;12476245;28;20124;-34
2022/08/31 02:09:49;;;;;;;1.95;0.65;;;15.10;99.90;;;;;;12471925;28;20529;-34
2022/08/31 02:15:51;;;;;;;2.38;0.80;;;14.90;99.90;;;;;;12465889;28;20056;-34
2022/08/31 02:21:53;;;;;;;2.50;0.70;;;14.70;99.90;;;;;;12491420;28;20049;-34
2022/08/31 02:27:55;;;;;;;1.65;0.70;;;14.70;99.90;;;;;;12474682;28;20375;-34
2022/08/31 02:33:57;;;;;;;2.00;0.65;;;14.50;99.90;;;;;;12477326;28;20076;-34
2022/08/31 02:39:59;;;;;;;3.47;0.60;;;14.50;99.90;;;;;;12472306;28;20132;-34
2022/08/31 02:46:01;;;;;;;1.67;0.60;;;14.40;99.90;;;;;;12479559;28;20046;-34
2022/08/31 02:52:03;;;;;;;3.50;1.02;;;14.40;99.90;;;;;;12476967;28;20509;-35
2022/08/31 02:58:05;;;;;;;1.45;0.60;;;14.30;99.90;;;;;;12477933;28;20119;-34
2022/08/31 03:04:07;;;;;;;2.15;0.77;;;14.20;99.90;;;;;;12479025;28;20573;-33
2022/08/31 03:10:12;;;;;;;2.55;0.70;;;14.30;99.90;;;;;;12478645;28;20479;-34
2022/08/31 03:16:14;;;;;;;3.33;0.80;;;14.30;99.90;;;;;;12474734;28;20124;-34
2022/08/31 03:22:17;;;;;;;3.55;0.68;;;14.20;99.90;;;;;;12475281;28;20156;-34
2022/08/31 03:28:21;;;;;;;1.67;0.63;;;14.20;99.90;;;;;;12469578;28;20046;-35
2022/08/31 03:34:23;;;;;;;1.58;0.80;;;14.00;99.90;;;;;;12474375;28;20440;-34
2022/08/31 03:40:25;;;;;;;1.67;0.65;;;14.00;99.90;;;;;;12489968;28;20447;-34
2022/08/31 03:46:31;;;;;;;2.55;0.90;;;14.00;99.90;;;;;;12482891;28;20179;-34
2022/08/31 03:52:34;;;;;;;3.08;0.60;;;14.00;99.90;;;;;;12482203;28;20157;-35
2022/08/31 03:58:37;;;;;;;2.80;0.70;;;14.00;99.90;;;;;;12480716;28;20041;-35
2022/08/31 04:04:39;;;;;;;1.00;0.55;;;14.00;99.90;;;;;;12484771;28;20103;-34
2022/08/31 04:10:42;;;;;;;1.67;0.70;;;14.00;99.90;;;;;;12484690;28;20054;-35
2022/08/31 04:16:44;;;;;;;1.70;0.80;;;13.90;99.90;;;;;;12477925;28;20485;-34
2022/08/31 04:22:46;;;;;;;2.05;0.70;;;13.90;99.90;;;;;;12483751;28;20149;-36
2022/08/31 04:28:48;;;;;;;1.90;0.80;;;13.80;99.90;;;;;;12480412;28;20057;-34
2022/08/31 04:34:50;;;;;;;1.63;0.60;;;13.70;99.90;;;;;;12463530;28;20041;-34
2022/08/31 04:40:57;;;;;;;1.25;0.65;;;13.70;99.90;;;;;;12471524;28;20049;-34
2022/08/31 04:46:59;;;;;;;1.90;0.90;;;13.90;99.90;;;;;;12480670;28;20046;-35
2022/08/31 04:53:00;;;;;;;1.73;0.70;;;13.90;99.90;;;;;;12485865;28;20222;-34
2022/08/31 04:59:07;;;;;;;3.60;0.93;;;13.90;99.90;;;;;;12471852;28;20574;-34
2022/08/31 05:05:09;;;;;;;;;;;13.90;99.90;;;;;;12478367;28;20052;-34
2022/08/31 05:11:16;;;;;;;2.03;0.80;;;13.90;99.90;;;;;;12481193;28;20114;-34
2022/08/31 05:17:22;;;;;;;2.13;0.88;;;13.90;99.90;;;;;;12478949;28;20412;-35
2022/08/31 05:23:24;;;;;;;1.52;0.60;;;13.80;99.90;;;;;;12481456;28;20041;-34
2022/08/31 05:29:26;;;;;;;3.53;0.70;;;13.90;99.90;;;;;;12480026;28;20045;-35
2022/08/31 05:35:30;;;;;;;3.65;0.80;;;14.00;99.90;;;;;;12481115;28;20053;-34
2022/08/31 05:41:31;;;;;;;3.85;1.10;;;14.20;99.90;;;;;;12481384;28;20050;-34
2022/08/31 05:47:33;;;;;;;2.53;1.00;;;14.20;99.90;;;;;;12476239;28;20092;-34
2022/08/31 05:53:35;;;;;;;1.95;0.82;;;14.20;99.90;;;;;;12474094;28;20045;-34
2022/08/31 05:59:38;;;;;;;2.75;0.95;;;14.30;99.90;;;;;;12478468;28;20510;-34
2022/08/31 06:05:40;;;;;;;2.70;0.90;;;14.20;99.90;;;;;;12481254;28;20072;-34
2022/08/31 06:11:43;;;;;;;4.22;0.95;;;14.20;99.90;;;;;;12497010;28;20493;-34
2022/08/31 06:17:45;;;;;;;2.25;0.80;;;14.30;99.90;;;;;;12465608;28;20107;-34
2022/08/31 06:23:49;;;;;;;3.53;1.00;;;14.30;99.90;;;;;;12431148;28;20072;-34
2022/08/31 06:29:51;;;;;;;4.10;0.98;;;14.30;99.90;;;;;;12433991;28;20053;-34
2022/08/31 06:35:54;;;;;;;3.78;1.10;;;14.40;99.90;;;;;;12426585;28;20068;-34
2022/08/31 06:41:56;;;;;;;6.15;1.10;;;14.60;99.90;;;;;;12433692;28;20478;-34
2022/08/31 06:47:59;;;;;;;4.63;0.95;;;14.60;99.90;;;;;;12426241;28;20046;-34
2022/08/31 06:54:03;;;;;;;6.07;0.93;;;14.50;99.90;;;;;;12428379;28;20041;-34
2022/08/31 07:00:25;;;;;;;1.70;0.90;;;14.70;99.90;;;;;;12436714;28;20053;-34
2022/08/31 07:06:29;;;;;;;2.70;1.00;;;14.90;99.90;;;;;;12432593;28;20065;-34
2022/08/31 07:12:31;;;;;;;3.75;1.05;;;15.10;99.90;;;;;;12437062;28;20104;-34
2022/08/31 07:18:33;;;;;;;2.42;1.13;;;15.10;99.90;;;;;;12462201;28;20151;-34
2022/08/31 07:24:36;;;;;;;5.53;1.55;;;15.20;99.90;;;;;;12480926;28;20121;-34
2022/08/31 07:30:40;;;;;;;3.95;1.17;;;15.30;99.90;;;;;;12490304;28;20481;-34
2022/08/31 07:43:04;;;;;;;3.08;1.10;;;15.50;99.90;;;;;;12468527;28;20509;-34
2022/08/31 07:49:11;;;;;;;6.90;1.00;;;15.70;99.90;;;;;;12490706;28;20049;-34
2022/08/31 07:55:15;;;;;;;3.40;0.90;;;16.00;99.90;;;;;;12491174;28;20049;-34
2022/08/31 08:01:18;;;;;;;6.85;1.20;;;16.30;99.90;;;;;;12488166;28;20045;-34
2022/08/31 08:07:20;;;;;;;1.48;0.80;;;16.60;99.90;;;;;;12485227;28;20057;-34
2022/08/31 08:13:22;;;;;;;2.78;0.90;;;16.80;99.90;;;;;;12487789;28;20045;-34
2022/08/31 08:19:24;;;;;;;2.60;0.80;;;16.90;99.90;;;;;;12491735;28;20084;-34
2022/08/31 08:25:26;;;;;;;3.80;0.95;;;17.10;99.90;;;;;;12485143;28;20034;-34
2022/08/31 08:31:28;;;;;;;4.10;1.17;;;17.30;99.90;;;;;;12486057;28;20405;-34
2022/08/31 08:37:30;;;;;;;4.72;0.90;;;17.50;99.90;;;;;;12490326;28;20372;-34
2022/08/31 08:43:55;;;;;;;3.35;0.88;;;17.70;99.90;;;;;;12485600;28;20053;-35
2022/08/31 08:50:04;;;;;;;3.55;1.23;;;17.70;99.90;;;;;;12489166;28;20448;-34
2022/08/31 08:56:11;;;;;;;3.75;1.00;;;17.70;99.90;;;;;;12487558;28;20056;-34
2022/08/31 09:02:41;;;;;;;4.55;1.00;;;17.70;99.90;;;;;;12466770;28;20046;-35
2022/08/31 09:09:08;;;;;;;2.65;0.80;;;17.70;99.90;;;;;;12483707;28;20153;-35
2022/08/31 09:15:30;;;;;;;2.65;1.17;;;17.80;99.90;;;;;;12481820;28;20490;-34
2022/08/31 09:21:43;;;;;;;3.90;1.05;;;18.00;99.90;;;;;;12487980;28;20084;-35
2022/08/31 09:27:56;;;;;;;1.90;0.88;;;18.10;99.90;;;;;;12484829;28;20504;-35
2022/08/31 09:33:58;;;;;;;3.85;0.80;;;18.40;99.90;;;;;;12478599;28;20045;-35
2022/08/31 09:40:20;;;;;;;3.20;0.98;;;18.70;99.90;;;;;;12480009;28;20049;-35
2022/08/31 09:46:28;;;;;;;3.60;0.88;;;19.10;99.90;;;;;;12477685;28;20401;-35
2022/08/31 09:59:11;;;;;;;2.47;0.90;;;19.60;99.90;;;;;;12376538;28;20914;-35
2022/08/31 10:05:39;;;;;;;2.83;0.90;;;19.50;99.90;;;;;;12479534;28;20416;-35
2022/08/31 10:11:46;;;;;;;2.45;1.08;;;19.60;99.90;;;;;;12478323;28;20060;-35
2022/08/31 10:18:32;;;;;;;3.33;0.77;;;19.70;99.90;;;;;;12484897;28;20060;-35
2022/08/31 10:24:43;;;;;;;2.80;1.00;;;19.80;99.90;;;;;;12475915;28;20128;-35
2022/08/31 10:30:48;;;;;;;2.47;1.08;;;19.90;99.90;;;;;;12485039;28;20057;-35
2022/08/31 10:36:57;;;;;;;4.32;1.17;;;20.00;99.90;;;;;;12480793;28;20556;-35
2022/08/31 10:43:08;;;;;;;3.33;0.80;;;20.30;99.90;;;;;;12481839;28;20053;-35
2022/08/31 10:49:11;;;;;;;2.22;0.75;;;20.40;99.90;;;;;;12482291;28;20075;-35
2022/08/31 10:55:36;;;;;;;3.60;1.00;;;20.60;99.90;;;;;;12480104;28;20045;-35
2022/08/31 11:02:19;;;;;;;6.05;1.50;;;20.80;99.90;;;;;;12477881;28;20085;-35
2022/08/31 11:08:47;;;;;;;2.57;0.87;;;21.10;99.90;;;;;;12476643;28;20041;-35
2022/08/31 11:15:16;;;;;;;2.78;1.13;;;21.60;99.90;;;;;;12481870;28;20038;-35
2022/08/31 11:21:34;;;;;;;2.88;0.90;;;21.30;99.90;;;;;;12480416;28;20073;-35
2022/08/31 11:27:47;;;;;;;4.07;0.80;;;20.80;99.90;;;;;;12472758;28;20470;-35
2022/08/31 11:34:06;;;;;;;2.33;0.80;;;20.80;99.90;;;;;;12472033;28;20516;-35
2022/08/31 11:40:41;;;;;;;4.55;0.90;;;21.30;99.90;;;;;;12477662;28;20132;-35
2022/08/31 11:46:58;;;;;;;3.33;0.70;;;21.60;99.90;;;;;;12480558;28;20053;-35
2022/08/31 11:53:24;;;;;;;3.83;0.60;;;21.20;99.90;;;;;;12478454;28;20057;-35
2022/08/31 11:59:32;;;;;;;1.85;0.70;;;21.20;99.90;;;;;;12480693;28;20038;-35
2022/08/31 12:05:55;;;;;;;6.30;0.80;;;21.60;99.90;;;;;;12485080;28;20412;-35
2022/08/31 12:12:27;;;;;;;2.40;0.90;;;22.10;99.90;;;;;;12486578;28;20053;-35
2022/08/31 12:25:53;;;;;;;2.47;0.80;;;22.10;99.90;;;;;;12478489;28;20472;-35
2022/08/31 12:32:14;;;;;;;3.53;0.90;;;22.20;99.90;;;;;;12485720;28;20046;-35
2022/08/31 12:38:26;;;;;;;3.40;0.80;;;22.00;99.90;;;;;;12489291;28;20469;-36
2022/08/31 12:44:32;;;;;;;4.27;0.80;;;22.40;99.90;;;;;;12484477;28;20049;-35
2022/08/31 12:50:52;;;;;;;1.38;0.52;;;22.20;99.90;;;;;;12489989;28;20578;-35
2022/08/31 12:56:54;;;;;;;3.42;0.80;;;22.40;99.90;;;;;;12484295;28;20237;-35
2022/08/31 13:03:11;;;;;;;3.75;0.80;;;22.50;99.90;;;;;;12482264;28;20459;-35
2022/08/31 13:09:44;;;;;;;2.28;0.90;;;22.30;99.90;;;;;;12478506;28;20647;-35
2022/08/31 13:15:46;;;;;;;3.08;0.95;;;22.30;99.90;;;;;;12482405;28;20052;-35
2022/08/31 13:21:57;;;;;;;3.53;1.23;;;22.60;99.90;;;;;;12481820;28;20076;-35
2022/08/31 13:27:59;;;;;;;4.18;1.30;;;22.80;99.90;;;;;;12490410;28;20409;-35
2022/08/31 13:34:08;;;;;;;3.53;1.27;;;22.70;99.90;;;;;;12485760;28;20045;-35
2022/08/31 13:40:15;;;;;;;2.22;0.77;;;22.60;99.90;;;;;;12479564;28;20096;-35
2022/08/31 13:46:22;;;;;;;3.50;0.65;;;22.60;99.90;;;;;;12473852;28;20409;-35
2022/08/31 13:52:55;;;;;;;2.03;0.88;;;22.30;99.90;;;;;;12483777;28;20057;-35
2022/08/31 13:59:22;;;;;;;3.40;0.90;;;22.40;99.90;;;;;;12487742;28;20123;-35
2022/08/31 14:05:36;;;;;;;2.22;0.77;;;22.40;99.90;;;;;;12482274;28;20049;-35
2022/08/31 14:11:41;;;;;;;2.00;0.95;;;22.30;99.90;;;;;;12481727;28;21285;-35
2022/08/31 14:18:05;;;;;;;1.70;0.88;;;22.30;99.90;;;;;;12485761;28;20199;-35
2022/08/31 14:24:27;;;;;;;2.92;0.80;;;22.30;99.90;;;;;;12490033;28;20075;-35
2022/08/31 14:30:34;;;;;;;2.72;0.90;;;22.50;99.90;;;;;;12484520;28;20045;-35
2022/08/31 14:36:51;;;;;;;1.27;0.60;;;22.50;99.90;;;;;;12482858;28;20072;-35
2022/08/31 14:42:54;;;;;;;2.70;0.95;;;22.60;99.90;;;;;;12476393;28;20072;-35
2022/08/31 14:48:56;;;;;;;1.38;0.70;;;23.20;99.90;;;;;;12478339;28;20045;-35
2022/08/31 14:54:59;;;;;;;8.15;1.10;;;23.30;99.90;;;;;;12482539;28;20471;-35
2022/08/31 15:01:03;;;;;;;4.00;1.10;;;23.00;99.90;;;;;;12482990;28;20053;-35
2022/08/31 15:07:05;;;;;;;3.95;0.70;;;22.90;99.90;;;;;;12489607;28;20124;-35
2022/08/31 15:13:10;;;;;;;1.75;0.60;;;23.40;99.90;;;;;;12475920;28;20508;-35
2022/08/31 15:19:14;;;;;;;2.55;0.60;;;23.20;99.90;;;;;;12483434;28;20076;-35
2022/08/31 15:25:17;;;;;;;;;;;23.00;99.90;;;;;;12480494;28;20042;-35
2022/08/31 15:31:25;;;;;;;2.73;0.83;;;23.40;99.90;;;;;;12478115;28;20012;-35
2022/08/31 15:37:29;;;;;;;3.00;0.68;;;23.00;99.90;;;;;;12488861;28;20636;-35
2022/08/31 15:43:34;;;;;;;1.45;0.90;;;22.90;99.90;;;;;;12490552;28;20049;-35
2022/08/31 15:49:37;;;;;;;2.05;0.80;;;22.70;99.90;;;;;;12491103;28;20589;-35
2022/08/31 15:55:39;;;;;;;1.88;0.80;;;23.00;99.90;;;;;;12493234;28;20076;-35
2022/08/31 16:01:41;;;;;;;1.60;0.60;;;23.00;99.90;;;;;;12488104;28;20478;-35
2022/08/31 16:07:43;;;;;;;4.53;1.10;;;22.80;99.90;;;;;;12490844;28;20050;-35
2022/08/31 16:13:50;;;;;;;1.50;0.70;;;22.90;99.90;;;;;;12489200;28;20058;-35
2022/08/31 16:19:52;;;;;;;2.53;0.98;;;23.10;99.90;;;;;;12486509;28;20088;-35
2022/08/31 16:25:54;;;;;;;4.15;0.80;;;22.80;99.90;;;;;;12500389;28;20110;-35
2022/08/31 16:31:56;;;;;;;2.17;0.80;;;22.50;99.90;;;;;;12482432;28;20050;-35
2022/08/31 16:38:00;;;;;;;1.48;0.60;;;22.80;99.90;;;;;;12500609;28;20049;-34
2022/08/31 16:44:04;;;;;;;4.05;0.55;;;22.60;99.90;;;;;;12482531;28;20041;-35
2022/08/31 16:50:21;;;;;;;1.08;0.55;;;22.40;99.90;;;;;;12486199;28;20084;-35
2022/08/31 16:56:24;;;;;;;2.75;0.75;;;22.20;99.90;;;;;;12482503;28;20132;-35
2022/08/31 17:02:27;;;;;;;1.00;0.60;;;22.00;99.90;;;;;;12482044;28;20050;-35
2022/08/31 17:08:30;;;;;;;1.50;0.70;;;21.80;99.90;;;;;;12487947;28;20072;-35
2022/08/31 17:14:42;;;;;;;2.23;0.63;;;21.50;99.90;;;;;;12480251;28;20056;-35
2022/08/31 17:20:44;;;;;;;2.58;0.90;;;21.30;99.90;;;;;;12487898;28;20563;-35
2022/08/31 17:26:48;;;;;;;1.77;0.60;;;21.10;99.90;;;;;;12477171;28;20136;-34
2022/08/31 17:32:50;;;;;;;4.15;0.57;;;20.90;99.90;;;;;;12485097;28;20052;-34
2022/08/31 17:38:53;;;;;;;3.30;0.75;;;20.70;99.90;;;;;;12484663;28;20144;-35
2022/08/31 17:44:56;;;;;;;2.27;0.60;;;20.60;99.90;;;;;;12481781;28;20049;-35
2022/08/31 17:50:58;;;;;;;3.72;0.80;;;20.50;99.90;;;;;;12489712;28;20284;-35
2022/08/31 17:57:04;;;;;;;1.73;0.65;;;20.50;99.90;;;;;;12482790;28;20046;-35
2022/08/31 18:03:06;;;;;;;2.85;0.90;;;20.30;99.90;;;;;;12480986;28;20069;-35
2022/08/31 18:09:08;;;;;;;1.95;0.65;;;20.30;99.90;;;;;;12481823;28;20060;-35
2022/08/31 18:15:13;;;;;;;2.85;0.70;;;20.30;99.90;;;;;;12479355;28;20140;-35
2022/08/31 18:21:22;;;;;;;2.67;0.75;;;20.30;99.90;;;;;;12484366;28;20535;-35
2022/08/31 18:27:24;;;;;;;3.08;0.60;;;20.20;99.90;;;;;;12485462;28;20100;-35
2022/08/31 18:33:26;;;;;;;1.73;0.70;;;19.90;99.90;;;;;;12478088;28;20046;-34
2022/08/31 18:45:14;;;;;;;1.60;0.60;;;19.90;99.90;;;;;;12484800;28;20061;-35
2022/08/31 18:45:52;;;;;;;;;;;19.80;99.90;;;;;;12468834;28;20399;-35
2022/08/31 18:51:56;;;;;;;3.53;0.80;;;19.70;99.90;;;;;;12474194;28;20377;-35
2022/08/31 18:57:59;;;;;;;3.80;0.88;;;19.60;99.90;;;;;;12474908;28;20057;-35
2022/08/31 19:04:02;;;;;;;5.25;0.70;;;19.60;99.90;;;;;;12472376;28;20042;-35
2022/08/31 19:10:06;;;;;;;4.65;0.68;;;19.30;99.90;;;;;;12478017;28;20052;-35
2022/08/31 19:16:19;;;;;;;1.55;0.80;;;19.20;99.90;;;;;;12452198;28;20405;-35
2022/08/31 19:22:21;;;;;;;1.73;0.65;;;19.00;99.90;;;;;;12476244;28;20068;-34
2022/08/31 19:28:23;;;;;;;4.13;1.00;;;19.00;99.90;;;;;;12480012;28;20046;-35
2022/08/31 19:34:29;;;;;;;3.58;0.80;;;19.00;99.90;;;;;;12466653;28;20451;-34
2022/08/31 19:40:37;;;;;;;4.22;0.80;;;18.90;99.90;;;;;;12480728;28;20049;-35
2022/08/31 19:46:42;;;;;;;3.92;0.70;;;18.80;99.90;;;;;;12479538;28;20516;-35
2022/08/31 19:52:53;;;;;;;3.60;0.60;;;18.80;99.90;;;;;;12482186;28;20046;-35
2022/08/31 19:58:58;;;;;;;4.70;0.90;;;18.80;99.90;;;;;;12483951;28;20061;-34
2022/08/31 20:05:00;;;;;;;8.93;0.70;;;18.70;99.90;;;;;;12477066;28;20048;-35
2022/08/31 20:11:04;;;;;;;1.33;0.60;;;18.60;99.90;;;;;;12478017;28;20041;-34
2022/08/31 20:17:08;;;;;;;1.70;0.80;;;18.70;99.90;;;;;;12481557;28;20049;-35
2022/08/31 20:23:15;;;;;;;1.40;0.67;;;18.70;99.90;;;;;;12483471;28;20038;-35
2022/08/31 20:29:19;;;;;;;5.30;0.60;;;18.60;99.90;;;;;;12486783;28;20033;-35
2022/08/31 20:35:21;;;;;;;3.07;0.83;;;18.70;99.90;;;;;;12470119;28;20064;-34
2022/08/31 20:41:28;;;;;;;2.97;0.50;;;18.60;99.90;;;;;;12474578;28;20060;-35
2022/08/31 20:53:50;;;;;;;2.78;0.50;;;18.40;99.90;;;;;;12466860;28;20053;-34
2022/08/31 20:59:52;;;;;;;1.70;0.70;;;18.40;99.90;;;;;;12471725;28;20457;-34
2022/08/31 21:05:54;;;;;;;2.65;0.57;;;18.30;99.90;;;;;;12474964;28;20037;-35
2022/08/31 21:11:57;;;;;;;2.47;0.90;;;18.40;99.90;;;;;;12485423;28;20056;-34
2022/08/31 21:18:00;;;;;;;3.22;1.02;;;18.20;99.90;;;;;;12470305;28;20083;-34
2022/08/31 21:24:02;;;;;;;1.85;0.65;;;18.10;99.90;;;;;;12465678;28;20079;-34
2022/08/31 21:30:05;;;;;;;3.03;0.73;;;17.90;99.90;;;;;;12478236;28;20088;-34
2022/08/31 21:36:10;;;;;;;3.50;0.63;;;17.70;99.90;;;;;;12476996;28;20184;-34
2022/08/31 21:42:12;;;;;;;1.58;0.63;;;17.70;99.90;;;;;;12479059;28;20180;-35
2022/08/31 21:48:13;;;;;;;0.95;0.30;;;17.50;99.90;;;;;;12484259;28;20182;-34
2022/08/31 21:54:19;;;;;;;3.90;0.75;;;17.40;99.90;;;;;;12480724;28;20045;-34
2022/08/31 22:00:28;;;;;;;6.65;0.73;;;17.40;99.90;;;;;;12500382;28;20049;-34
2022/08/31 22:06:30;;;;;;;1.67;0.50;;;17.00;99.90;;;;;;12480543;28;20124;-34
2022/08/31 22:12:32;;;;;;;1.38;0.50;;;16.90;99.90;;;;;;12480122;28;20390;-34
2022/08/31 22:18:34;;;;;;;1.60;0.50;;;16.80;99.90;;;;;;12492566;28;20681;-34
2022/08/31 22:24:55;;;;;;;9.90;1.20;;;16.70;99.90;;;;;;12479093;28;20041;-34
2022/08/31 22:30:59;;;;;;;1.10;0.60;;;16.80;99.90;;;;;;12474263;28;20091;-34
2022/08/31 22:37:03;;;;;;;3.05;0.70;;;16.70;99.90;;;;;;12465299;28;20106;-34
2022/08/31 22:43:05;;;;;;;0.77;0.50;;;16.70;99.90;;;;;;12461530;28;20122;-34
2022/08/31 22:49:07;;;;;;;1.23;0.60;;;16.40;99.90;;;;;;12462370;28;20045;-34
2022/08/31 22:55:09;;;;;;;2.55;0.60;;;16.30;99.90;;;;;;12460759;28;20077;-34
2022/08/31 23:01:26;;;;;;;3.00;0.50;;;16.30;99.90;;;;;;12465879;28;20102;-34
2022/08/31 23:07:28;;;;;;;3.03;0.55;;;16.30;99.90;;;;;;12458583;28;20065;-33
2022/08/31 23:13:50;;;;;;;2.03;0.60;;;16.10;99.90;;;;;;12463184;28;20087;-34
2022/08/31 23:19:53;;;;;;;2.38;0.55;;;16.10;99.90;;;;;;12460409;28;20057;-34
2022/08/31 23:25:55;;;;;;;1.48;0.60;;;16.10;99.90;;;;;;12461991;28;20497;-33
2022/08/31 23:31:59;;;;;;;1.95;0.70;;;15.90;99.90;;;;;;12476783;28;20049;-34
2022/08/31 23:38:01;;;;;;;3.38;0.90;;;15.80;99.90;;;;;;12494397;28;20084;-34
2022/08/31 23:44:06;;;;;;;1.77;0.50;;;15.90;99.90;;;;;;12479022;28;20554;-34
2022/08/31 23:50:09;;;;;;;3.10;0.70;;;15.80;99.90;;;;;;12479219;28;20052;-33
2022/08/31 23:56:12;;;;;;;3.20;0.80;;;15.80;99.90;;;;;;12488995;28;20049;-33
